createdAt,value
2023-05-14T00:02:16.684Z,100642.85
2023-05-14T00:04:43.832Z,100644.95
2023-05-14T00:07:10.936Z,100648.58
2023-05-14T00:09:38.325Z,100645.41
2023-05-14T00:12:05.939Z,100646.55
2023-05-14T00:14:32.937Z,100642.70
2023-05-14T00:16:59.969Z,100642.20
2023-05-14T00:19:27.855Z,100639.48
2023-05-14T00:21:54.977Z,100636.98
2023-05-14T00:24:22.062Z,100634.88
2023-05-14T00:26:49.147Z,100634.54
2023-05-14T00:29:16.248Z,100638.46
2023-05-14T00:31:43.502Z,100638.38
2023-05-14T00:34:10.895Z,100637.76
2023-05-14T00:36:38.043Z,100634.29
2023-05-14T00:39:05.131Z,100634.16
2023-05-14T00:41:32.202Z,100632.41
2023-05-14T00:43:59.728Z,100631.47
2023-05-14T00:46:27.599Z,100629.72
2023-05-14T00:48:55.021Z,100630.54
2023-05-14T00:51:22.555Z,100633.55
2023-05-14T00:53:51.066Z,100634.45
2023-05-14T00:56:19.264Z,100632.78
2023-05-14T00:58:46.397Z,100639.25
2023-05-14T01:01:15.447Z,100639.77
2023-05-14T01:03:43.598Z,100641.06
2023-05-14T01:06:38.290Z,100641.47
2023-05-14T01:09:15.093Z,100642.98
2023-05-14T01:12:00.082Z,100642.32
2023-05-14T01:14:56.642Z,100646.48
2023-05-14T01:17:29.622Z,100646.58
2023-05-14T01:19:57.312Z,100647.88
2023-05-14T01:22:24.410Z,100650.13
2023-05-14T01:24:51.715Z,100649.82
2023-05-14T01:27:27.536Z,100645.93
2023-05-14T01:30:14.162Z,100649.41
2023-05-14T01:32:44.843Z,100644.13
2023-05-14T01:35:13.192Z,100639.34
2023-05-14T01:37:42.121Z,100640.86
2023-05-14T01:40:11.616Z,100641.29
2023-05-14T01:42:39.047Z,100642.86
2023-05-14T01:45:06.865Z,100642.87
2023-05-14T01:47:33.957Z,100641.38
2023-05-14T01:50:01.088Z,100637.87
2023-05-14T01:52:28.311Z,100642.62
2023-05-14T01:54:55.641Z,100645.85
2023-05-14T01:57:22.927Z,100646.81
2023-05-14T01:59:50.372Z,100649.73
2023-05-14T02:02:17.458Z,100652.98
2023-05-14T02:04:44.587Z,100654.05
2023-05-14T02:07:11.592Z,100653.79
2023-05-14T02:09:38.852Z,100655.02
2023-05-14T02:12:07.145Z,100654.52
2023-05-14T02:14:34.188Z,100655.95
2023-05-14T02:17:01.292Z,100660.14
2023-05-14T02:19:28.328Z,100658.15
2023-05-14T02:21:55.549Z,100659.69
2023-05-14T02:24:22.829Z,100657.58
2023-05-14T02:26:49.992Z,100662.83
2023-05-14T02:29:17.280Z,100664.27
2023-05-14T02:31:44.468Z,100658.79
2023-05-14T02:34:11.498Z,100658.20
2023-05-14T02:36:38.550Z,100657.42
2023-05-14T02:39:05.675Z,100656.89
2023-05-14T02:41:32.829Z,100653.15
2023-05-14T02:44:00.035Z,100654.79
2023-05-14T02:46:27.273Z,100654.59
2023-05-14T02:48:55.437Z,100652.48
2023-05-14T02:51:23.087Z,100651.70
2023-05-14T02:53:50.203Z,100652.91
2023-05-14T02:56:17.200Z,100652.06
2023-05-14T02:58:44.262Z,100661.07
2023-05-14T03:01:11.435Z,100658.50
2023-05-14T03:03:39.030Z,100656.52
2023-05-14T03:06:06.862Z,100656.27
2023-05-14T03:08:33.917Z,100655.08
2023-05-14T03:11:01.045Z,100658.55
2023-05-14T03:13:28.126Z,100659.56
2023-05-14T03:15:55.317Z,100663.23
2023-05-14T03:18:22.722Z,100666.63
2023-05-14T03:20:49.752Z,100664.59
2023-05-14T03:23:16.881Z,100661.11
2023-05-14T03:25:44.027Z,100664.18
2023-05-14T03:28:11.092Z,100667.40
2023-05-14T03:30:38.264Z,100668.36
2023-05-14T03:33:05.464Z,100670.64
2023-05-14T03:35:32.583Z,100670.70
2023-05-14T03:38:00.005Z,100673.73
2023-05-14T03:40:27.221Z,100670.80
2023-05-14T03:42:54.325Z,100668.98
2023-05-14T03:45:21.392Z,100667.23
2023-05-14T03:47:48.508Z,100664.86
2023-05-14T03:50:15.743Z,100666.73
2023-05-14T03:52:43.742Z,100671.38
2023-05-14T03:55:10.898Z,100671.30
2023-05-14T03:57:38.067Z,100668.69
2023-05-14T04:00:05.613Z,100667.48
2023-05-14T04:02:43.931Z,100668.70
2023-05-14T04:05:11.269Z,100666.83
2023-05-14T04:07:38.442Z,100667.16
2023-05-14T04:10:06.508Z,100669.35
2023-05-14T04:12:35.528Z,100665.20
2023-05-14T04:15:03.066Z,100662.89
2023-05-14T04:17:30.122Z,100661.00
2023-05-14T04:19:57.207Z,100661.73
2023-05-14T04:22:24.627Z,100660.06
2023-05-14T04:24:52.348Z,100651.17
2023-05-14T04:27:22.776Z,100653.28
2023-05-14T04:29:51.024Z,100654.36
2023-05-14T04:32:18.433Z,100654.17
2023-05-14T04:34:47.020Z,100654.75
2023-05-14T04:37:14.174Z,100647.96
2023-05-14T04:39:41.268Z,100651.84
2023-05-14T04:42:08.580Z,100650.13
2023-05-14T04:44:36.919Z,100653.20
2023-05-14T04:47:04.702Z,100652.88
2023-05-14T04:49:32.125Z,100649.19
2023-05-14T04:51:59.516Z,100644.02
2023-05-14T04:54:26.663Z,100649.02
2023-05-14T04:56:55.977Z,100651.92
2023-05-14T04:59:23.059Z,100655.92
2023-05-14T05:01:50.190Z,100655.42
2023-05-14T05:04:17.304Z,100656.20
2023-05-14T05:06:44.312Z,100652.65
2023-05-14T05:09:11.383Z,100651.44
2023-05-14T05:11:39.110Z,100650.20
2023-05-14T05:14:06.170Z,100649.27
2023-05-14T05:16:33.305Z,100652.95
2023-05-14T05:19:00.453Z,100649.86
2023-05-14T05:21:27.739Z,100649.09
2023-05-14T05:23:54.752Z,100650.98
2023-05-14T05:26:22.510Z,100652.08
2023-05-14T05:28:49.540Z,100650.53
2023-05-14T05:31:19.568Z,100650.14
2023-05-14T05:33:48.043Z,100649.96
2023-05-14T05:36:15.454Z,100650.40
2023-05-14T05:38:42.545Z,100648.13
2023-05-14T05:41:09.541Z,100645.58
2023-05-14T05:43:36.808Z,100648.37
2023-05-14T05:46:03.858Z,100651.05
2023-05-14T05:48:30.927Z,100646.91
2023-05-14T05:50:58.112Z,100645.39
2023-05-14T05:53:25.154Z,100645.80
2023-05-14T05:55:52.211Z,100642.89
2023-05-14T05:58:19.914Z,100641.77
2023-05-14T06:00:47.328Z,100641.56
2023-05-14T06:03:14.770Z,100639.47
2023-05-14T06:05:42.053Z,100634.88
2023-05-14T06:08:09.944Z,100634.15
2023-05-14T06:10:37.746Z,100635.84
2023-05-14T06:13:04.880Z,100629.33
2023-05-14T06:15:32.031Z,100627.27
2023-05-14T06:17:59.112Z,100628.06
2023-05-14T06:20:26.394Z,100627.45
2023-05-14T06:22:53.647Z,100627.10
2023-05-14T06:25:20.713Z,100628.07
2023-05-14T06:27:47.755Z,100620.48
2023-05-14T06:30:15.550Z,100627.49
2023-05-14T06:32:42.660Z,100622.95
2023-05-14T06:35:09.867Z,100619.36
2023-05-14T06:37:36.865Z,100621.20
2023-05-14T06:40:04.295Z,100622.59
2023-05-14T06:42:31.307Z,100624.38
2023-05-14T06:44:58.729Z,100624.77
2023-05-14T06:47:25.889Z,100624.13
2023-05-14T06:49:52.929Z,100620.44
2023-05-14T06:52:19.970Z,100622.11
2023-05-14T06:54:46.968Z,100622.96
2023-05-14T06:57:13.976Z,100619.71
2023-05-14T06:59:41.015Z,100614.21
2023-05-14T07:02:08.053Z,100612.59
2023-05-14T07:04:35.190Z,100610.98
2023-05-14T07:07:02.279Z,100608.96
2023-05-14T07:09:29.349Z,100601.98
2023-05-14T07:11:56.381Z,100606.66
2023-05-14T07:14:23.483Z,100603.21
2023-05-14T07:16:50.537Z,100605.88
2023-05-14T07:19:17.672Z,100602.48
2023-05-14T07:21:44.735Z,100598.45
2023-05-14T07:24:11.748Z,100599.09
2023-05-14T07:26:39.407Z,100603.59
2023-05-14T07:29:06.934Z,100602.89
2023-05-14T07:31:34.233Z,100598.13
2023-05-14T07:34:01.292Z,100595.82
2023-05-14T07:36:28.391Z,100593.66
2023-05-14T07:39:00.276Z,100592.88
2023-05-14T07:41:27.330Z,100592.35
2023-05-14T07:43:54.369Z,100588.19
2023-05-14T07:46:21.430Z,100591.63
2023-05-14T07:48:48.425Z,100591.48
2023-05-14T07:51:15.465Z,100585.27
2023-05-14T07:53:42.597Z,100589.32
2023-05-14T07:56:09.650Z,100583.27
2023-05-14T07:58:36.667Z,100584.20
2023-05-14T08:01:07.310Z,100579.35
2023-05-14T08:03:35.325Z,100579.33
2023-05-14T08:06:03.080Z,100578.30
2023-05-14T08:31:10.184Z,100573.91
2023-05-14T08:33:37.298Z,100574.96
2023-05-14T08:36:04.544Z,100574.86
2023-05-14T08:38:31.613Z,100569.75
2023-05-14T08:40:59.598Z,100574.98
2023-05-14T08:43:30.973Z,100570.23
2023-05-14T08:46:01.356Z,100570.42
2023-05-14T08:48:32.694Z,100565.08
2023-05-14T08:51:01.024Z,100560.41
2023-05-14T08:53:28.096Z,100555.96
2023-05-14T08:55:55.154Z,100556.02
2023-05-14T08:58:22.264Z,100550.24
2023-05-14T09:00:49.405Z,100544.66
2023-05-14T09:03:17.533Z,100543.48
2023-05-14T09:05:46.518Z,100547.60
2023-05-14T09:08:13.859Z,100546.40
2023-05-14T09:10:40.900Z,100547.86
2023-05-14T09:13:10.276Z,100545.46
2023-05-14T09:15:38.691Z,100539.21
2023-05-14T09:18:06.797Z,100536.41
2023-05-14T09:20:34.603Z,100531.58
2023-05-14T09:23:02.179Z,100527.83
2023-05-14T09:25:32.549Z,100526.48
2023-05-14T09:27:59.766Z,100527.29
2023-05-14T09:30:27.580Z,100525.21
2023-05-14T09:32:55.374Z,100520.77
2023-05-14T09:35:24.817Z,100522.33
2023-05-14T09:37:55.870Z,100521.40
2023-05-14T09:40:24.668Z,100517.83
2023-05-14T09:42:52.256Z,100516.92
2023-05-14T09:45:19.424Z,100512.19
2023-05-14T09:47:46.656Z,100509.02
2023-05-14T09:50:13.984Z,100506.38
2023-05-14T09:52:41.187Z,100504.63
2023-05-14T09:55:08.693Z,100495.95
2023-05-14T09:57:36.045Z,100491.67
2023-05-14T10:00:04.059Z,100491.19
2023-05-14T10:02:41.505Z,100498.71
2023-05-14T10:05:09.801Z,100502.10
2023-05-14T10:07:46.719Z,100502.31
2023-05-14T10:10:19.887Z,100496.79
2023-05-14T10:12:53.138Z,100494.92
2023-05-14T10:15:33.872Z,100494.44
2023-05-14T10:18:08.271Z,100494.17
2023-05-14T10:20:38.354Z,100496.02
2023-05-14T10:23:08.087Z,100491.27
2023-05-14T10:25:37.112Z,100490.42
2023-05-14T10:28:06.112Z,100487.77
2023-05-14T10:30:33.221Z,100487.88
2023-05-14T10:33:18.881Z,100484.60
2023-05-14T10:35:56.807Z,100482.95
2023-05-14T10:38:27.900Z,100480.34
2023-05-14T10:41:02.334Z,100476.20
2023-05-14T10:43:31.204Z,100475.73
2023-05-14T10:46:00.072Z,100471.71
2023-05-14T10:48:27.321Z,100472.82
2023-05-14T10:50:55.595Z,100467.60
2023-05-14T10:53:36.076Z,100464.68
2023-05-14T10:56:21.761Z,100465.02
2023-05-14T10:58:50.241Z,100466.67
2023-05-14T11:01:17.299Z,100465.41
2023-05-14T11:03:46.514Z,100477.09
2023-05-14T11:06:15.743Z,100482.86
2023-05-14T11:08:44.115Z,100479.48
2023-05-14T11:11:11.323Z,100480.50
2023-05-14T11:13:38.645Z,100482.98
2023-05-14T11:18:41.109Z,100512.08
2023-05-14T11:21:08.174Z,100514.62
2023-05-14T11:23:35.270Z,100504.92
2023-05-14T11:26:02.456Z,100496.29
2023-05-14T11:28:30.168Z,100495.28
2023-05-14T11:30:57.327Z,100490.17
2023-05-14T11:33:24.378Z,100492.59
2023-05-14T11:35:52.192Z,100490.04
2023-05-14T11:38:21.377Z,100486.36
2023-05-14T11:40:55.866Z,100490.23
2023-05-14T11:43:29.587Z,100494.95
2023-05-14T11:45:57.139Z,100489.52
2023-05-14T11:48:24.385Z,100487.41
2023-05-14T11:50:52.933Z,100487.95
2023-05-14T11:53:28.160Z,100492.65
2023-05-14T11:55:58.025Z,100488.86
2023-05-14T11:58:26.088Z,100492.71
2023-05-14T12:00:55.785Z,100492.01
2023-05-14T12:03:26.502Z,100492.44
2023-05-14T12:06:02.185Z,100488.69
2023-05-14T12:08:31.556Z,100485.33
2023-05-14T12:11:00.565Z,100482.86
2023-05-14T12:13:29.776Z,100473.48
2023-05-14T12:15:58.744Z,100471.09
2023-05-14T12:18:28.414Z,100469.33
2023-05-14T12:20:55.786Z,100467.21
2023-05-14T12:23:33.104Z,100464.73
2023-05-14T12:26:08.910Z,100468.92
2023-05-14T12:28:43.496Z,100466.51
2023-05-14T12:31:10.896Z,100465.74
2023-05-14T12:33:37.920Z,100463.67
2023-05-14T12:36:20.625Z,100464.20
2023-05-14T12:38:50.949Z,100461.09
2023-05-14T12:41:18.607Z,100460.16
2023-05-14T12:43:48.298Z,100455.42
2023-05-14T12:46:15.693Z,100451.89
2023-05-14T12:48:42.757Z,100454.60
2023-05-14T12:51:09.753Z,100449.66
2023-05-14T12:53:36.779Z,100447.35
2023-05-14T12:56:04.006Z,100448.30
2023-05-14T12:58:31.036Z,100449.36
2023-05-14T13:00:58.944Z,100448.14
2023-05-14T13:03:26.627Z,100446.92
2023-05-14T13:05:54.540Z,100443.31
2023-05-14T13:08:25.086Z,100445.77
2023-05-14T13:10:53.382Z,100448.70
2023-05-14T13:13:20.837Z,100442.98
2023-05-14T13:15:48.049Z,100438.42
2023-05-14T13:18:16.074Z,100437.67
2023-05-14T13:23:19.102Z,100439.42
2023-05-14T13:25:47.472Z,100440.89
2023-05-14T13:28:16.325Z,100437.34
2023-05-14T13:31:05.221Z,100438.65
2023-05-14T13:33:36.822Z,100438.58
2023-05-14T13:36:04.364Z,100438.65
2023-05-14T13:38:34.850Z,100438.40
2023-05-14T13:41:02.831Z,100437.62
2023-05-14T13:43:34.808Z,100437.04
2023-05-14T13:46:03.405Z,100438.66
2023-05-14T13:48:31.251Z,100430.86
2023-05-14T13:50:58.573Z,100433.49
2023-05-14T13:53:26.267Z,100434.55
2023-05-14T13:55:56.672Z,100437.02
2023-05-14T13:58:25.428Z,100441.00
2023-05-14T14:00:53.080Z,100442.98
2023-05-14T14:03:20.332Z,100445.95
2023-05-14T14:05:47.963Z,100443.89
2023-05-14T14:08:23.485Z,100441.95
2023-05-14T14:10:52.813Z,100444.19
2023-05-14T14:13:21.353Z,100444.68
2023-05-14T14:15:48.728Z,100440.42
2023-05-14T14:18:15.882Z,100448.84
2023-05-14T14:20:42.960Z,100453.55
2023-05-14T14:23:10.019Z,100454.95
2023-05-14T14:25:37.087Z,100455.15
2023-05-14T14:28:04.148Z,100451.23
2023-05-14T14:30:32.533Z,100458.54
2023-05-14T14:33:01.428Z,100455.38
2023-05-14T14:35:28.860Z,100457.34
2023-05-14T14:37:56.048Z,100453.22
2023-05-14T14:40:24.148Z,100452.94
2023-05-14T14:42:51.242Z,100455.70
2023-05-14T14:45:18.587Z,100451.73
2023-05-14T14:47:46.777Z,100457.34
2023-05-14T14:50:13.957Z,100459.55
2023-05-14T14:52:45.589Z,100461.89
2023-05-14T14:55:13.324Z,100459.09
2023-05-14T14:57:40.507Z,100453.45
2023-05-14T15:00:07.986Z,100448.98
2023-05-14T15:02:35.559Z,100443.94
2023-05-14T15:05:02.708Z,100438.14
2023-05-14T15:07:33.165Z,100436.34
2023-05-14T15:10:00.359Z,100433.27
2023-05-14T15:12:27.434Z,100433.32
2023-05-14T15:14:54.466Z,100435.67
2023-05-14T15:17:21.994Z,100428.91
2023-05-14T15:19:49.091Z,100429.25
2023-05-14T15:22:16.168Z,100427.86
2023-05-14T15:24:43.244Z,100426.27
2023-05-14T15:27:10.486Z,100427.88
2023-05-14T15:29:37.507Z,100425.50
2023-05-14T15:32:05.182Z,100425.34
2023-05-14T15:34:32.181Z,100429.23
2023-05-14T15:36:59.198Z,100429.98
2023-05-14T15:39:27.272Z,100433.77
2023-05-14T15:41:55.474Z,100434.87
2023-05-14T15:44:22.589Z,100432.77
2023-05-14T15:46:49.783Z,100437.63
2023-05-14T15:49:16.875Z,100438.92
2023-05-14T15:51:44.275Z,100441.73
2023-05-14T15:54:11.380Z,100435.96
2023-05-14T15:56:38.743Z,100437.02
2023-05-14T15:59:06.004Z,100438.23
2023-05-14T16:01:33.116Z,100439.23
2023-05-14T16:04:00.204Z,100443.77
2023-05-14T16:06:27.498Z,100441.56
2023-05-14T16:08:54.701Z,100442.38
2023-05-14T16:11:22.214Z,100442.40
2023-05-14T16:13:49.259Z,100444.55
2023-05-14T16:16:16.461Z,100446.61
2023-05-14T16:18:44.277Z,100443.96
2023-05-14T16:21:11.585Z,100446.14
2023-05-14T16:23:39.082Z,100446.04
2023-05-14T16:26:06.686Z,100450.55
2023-05-14T16:28:34.147Z,100452.08
2023-05-14T16:31:03.466Z,100456.74
2023-05-14T16:33:31.022Z,100456.34
2023-05-14T16:35:58.216Z,100459.23
2023-05-14T16:38:25.479Z,100459.95
2023-05-14T16:40:52.776Z,100463.36
2023-05-14T16:43:19.821Z,100464.02
2023-05-14T16:45:47.368Z,100466.40
2023-05-14T16:48:14.884Z,100468.36
2023-05-14T16:50:42.052Z,100470.55
2023-05-14T16:53:09.236Z,100472.76
2023-05-14T16:55:36.524Z,100475.91
2023-05-14T16:58:03.558Z,100475.67
2023-05-14T17:00:30.876Z,100475.67
2023-05-14T17:02:58.217Z,100475.75
2023-05-14T17:05:25.762Z,100474.18
2023-05-14T17:07:53.046Z,100476.46
2023-05-14T17:10:20.324Z,100481.85
2023-05-14T17:12:47.351Z,100478.77
2023-05-14T17:15:14.646Z,100483.85
2023-05-14T17:17:42.169Z,100481.95
2023-05-14T17:20:10.021Z,100484.63
2023-05-14T17:22:37.428Z,100485.98
2023-05-14T17:25:05.892Z,100490.83
2023-05-14T17:27:33.708Z,100492.71
2023-05-14T17:30:03.813Z,100497.86
2023-05-14T17:32:31.452Z,100498.80
2023-05-14T17:34:58.972Z,100500.98
2023-05-14T17:37:26.686Z,100503.91
2023-05-14T17:39:53.854Z,100501.04
2023-05-14T17:42:21.148Z,100506.89
2023-05-14T17:44:48.169Z,100514.83
2023-05-14T17:47:15.406Z,100513.03
2023-05-14T17:49:42.479Z,100516.66
2023-05-14T17:52:09.957Z,100521.41
2023-05-14T17:54:37.240Z,100526.48
2023-05-14T17:57:04.385Z,100525.35
2023-05-14T17:59:31.519Z,100524.20
2023-05-14T18:01:58.892Z,100520.60
2023-05-14T18:04:25.922Z,100525.30
2023-05-14T18:06:53.076Z,100532.14
2023-05-14T18:09:20.400Z,100530.91
2023-05-14T18:11:47.780Z,100530.34
2023-05-14T18:14:14.791Z,100525.35
2023-05-14T18:16:42.284Z,100524.73
2023-05-14T18:19:09.467Z,100525.67
2023-05-14T18:21:36.555Z,100521.05
2023-05-14T18:24:03.989Z,100517.77
2023-05-14T18:26:33.574Z,100516.02
2023-05-14T18:29:01.384Z,100517.24
2023-05-14T18:31:28.594Z,100515.13
2023-05-14T18:33:55.879Z,100512.02
2023-05-14T18:36:23.404Z,100509.88
2023-05-14T18:38:50.416Z,100506.77
2023-05-14T18:41:17.700Z,100506.19
2023-05-14T18:43:45.014Z,100508.54
2023-05-14T18:46:12.616Z,100510.46
2023-05-14T18:48:40.536Z,100508.38
2023-05-14T18:51:08.163Z,100508.70
2023-05-14T18:53:35.224Z,100506.64
2023-05-14T18:56:02.628Z,100503.48
2023-05-14T18:58:29.760Z,100503.89
2023-05-14T19:00:59.389Z,100501.02
2023-05-14T19:03:27.035Z,100497.41
2023-05-14T19:05:54.525Z,100497.82
2023-05-14T19:08:21.705Z,100499.11
2023-05-14T19:10:48.872Z,100498.45
2023-05-14T19:13:19.101Z,100494.95
2023-05-14T19:15:46.478Z,100496.07
2023-05-14T19:18:14.126Z,100493.23
2023-05-14T19:20:42.569Z,100492.81
2023-05-14T19:23:09.633Z,100494.60
2023-05-14T19:25:36.717Z,100495.20
2023-05-14T19:28:05.067Z,100501.21
2023-05-14T19:30:32.166Z,100499.48
2023-05-14T19:32:59.672Z,100500.32
2023-05-14T19:35:27.409Z,100497.64
2023-05-14T19:37:54.619Z,100495.67
2023-05-14T19:40:22.176Z,100495.23
2023-05-14T19:42:49.321Z,100494.20
2023-05-14T19:45:16.591Z,100494.63
2023-05-14T19:47:43.894Z,100494.46
2023-05-14T19:50:11.765Z,100488.59
2023-05-14T19:52:38.960Z,100490.16
2023-05-14T19:55:06.570Z,100489.92
2023-05-14T19:57:33.907Z,100496.23
2023-05-14T20:00:01.297Z,100493.45
2023-05-14T20:02:29.388Z,100495.25
2023-05-14T20:04:56.909Z,100494.98
2023-05-14T20:07:26.158Z,100498.51
2023-05-14T20:09:53.298Z,100496.04
2023-05-14T20:12:20.643Z,100492.91
2023-05-14T20:14:47.672Z,100489.80
2023-05-14T20:17:15.132Z,100482.52
2023-05-14T20:19:42.831Z,100489.80
2023-05-14T20:22:09.945Z,100489.93
2023-05-14T20:24:37.107Z,100493.29
2023-05-14T20:27:04.920Z,100494.56
2023-05-14T20:29:32.210Z,100497.77
2023-05-14T20:31:59.779Z,100494.86
2023-05-14T20:34:26.911Z,100497.26
2023-05-14T20:36:54.423Z,100494.30
2023-05-14T20:39:21.680Z,100491.83
2023-05-14T20:41:48.723Z,100491.02
2023-05-14T20:44:16.423Z,100495.13
2023-05-14T20:46:44.685Z,100493.30
2023-05-14T20:49:11.861Z,100493.66
2023-05-14T20:51:39.457Z,100490.60
2023-05-14T20:54:06.679Z,100487.20
2023-05-14T20:56:34.076Z,100485.76
2023-05-14T20:59:01.448Z,100488.34
2023-05-14T21:01:31.048Z,100487.84
2023-05-14T21:03:58.239Z,100484.64
2023-05-14T21:06:25.933Z,100485.37
2023-05-14T21:08:53.185Z,100487.71
2023-05-14T21:11:21.762Z,100487.64
2023-05-14T21:13:49.420Z,100491.14
2023-05-14T21:16:17.158Z,100492.40
2023-05-14T21:18:44.319Z,100491.13
2023-05-14T21:21:11.658Z,100494.73
2023-05-14T21:23:39.289Z,100491.80
2023-05-14T21:26:06.506Z,100492.05
2023-05-14T21:28:33.788Z,100494.11
2023-05-14T21:31:00.928Z,100493.35
2023-05-14T21:33:28.382Z,100495.14
2023-05-14T21:35:55.834Z,100495.75
2023-05-14T21:38:22.965Z,100492.23
2023-05-14T21:40:50.237Z,100491.92
2023-05-14T21:43:17.454Z,100494.80
2023-05-14T21:45:47.214Z,100498.02
2023-05-14T21:48:14.723Z,100495.13
2023-05-14T21:50:42.021Z,100501.31
2023-05-14T21:53:09.284Z,100496.20
2023-05-14T21:55:36.568Z,100498.06
2023-05-14T21:58:04.030Z,100497.70
2023-05-14T22:00:32.048Z,100498.26
2023-05-14T22:03:00.339Z,100496.69
2023-05-14T22:05:28.083Z,100494.77
2023-05-14T22:07:55.309Z,100491.21
2023-05-14T22:10:22.994Z,100489.81
2023-05-14T22:12:50.123Z,100483.05
2023-05-14T22:15:17.147Z,100486.27
2023-05-14T22:17:44.293Z,100482.32
2023-05-14T22:20:11.456Z,100479.27
2023-05-14T22:22:38.970Z,100478.79
2023-05-14T22:25:08.339Z,100480.89
2023-05-14T22:27:35.590Z,100478.67
2023-05-14T22:30:03.147Z,100477.63
2023-05-14T22:32:30.295Z,100478.10
2023-05-14T22:34:57.419Z,100479.61
2023-05-14T22:37:24.643Z,100477.54
2023-05-14T22:39:51.878Z,100476.60
2023-05-14T22:42:20.480Z,100474.11
2023-05-14T22:44:47.593Z,100470.02
2023-05-14T22:47:15.126Z,100473.46
2023-05-14T22:49:43.243Z,100471.55
2023-05-14T22:52:10.397Z,100470.61
2023-05-14T22:54:37.438Z,100468.66
2023-05-14T22:57:05.117Z,100470.94
2023-05-14T22:59:32.202Z,100465.23
2023-05-14T23:01:59.241Z,100466.32
2023-05-14T23:04:26.597Z,100461.89
2023-05-14T23:06:53.834Z,100463.32
2023-05-14T23:09:20.922Z,100466.67
2023-05-14T23:11:48.187Z,100461.45
2023-05-14T23:14:15.287Z,100464.05
2023-05-14T23:16:42.577Z,100464.10
2023-05-14T23:19:10.192Z,100469.82
2023-05-14T23:21:37.745Z,100470.34
2023-05-14T23:24:05.229Z,100470.27
2023-05-14T23:26:32.609Z,100472.75
2023-05-14T23:28:59.764Z,100470.71
2023-05-14T23:31:27.211Z,100466.73
2023-05-14T23:33:54.459Z,100459.80
2023-05-14T23:36:21.560Z,100452.73
2023-05-14T23:38:48.770Z,100455.16
2023-05-14T23:41:15.760Z,100455.61
2023-05-14T23:43:42.980Z,100469.34
2023-05-14T23:46:10.650Z,100470.19
2023-05-14T23:48:37.902Z,100471.07
2023-05-14T23:51:04.936Z,100467.02
2023-05-14T23:53:32.006Z,100470.65
2023-05-14T23:55:59.137Z,100467.60
2023-05-14T23:58:26.767Z,100467.67
